createdAt,value
2019-05-02T00:01:01.758Z,100891.44
2019-05-02T00:02:12.676Z,100888.94
2019-05-02T00:03:19.938Z,100891.55
2019-05-02T00:04:27.185Z,100890.97
2019-05-02T00:05:34.128Z,100885.40
2019-05-02T00:06:44.284Z,100889.60
2019-05-02T00:07:53.907Z,100889.01
2019-05-02T00:09:03.976Z,100886.53
2019-05-02T00:10:12.189Z,100884.09
2019-05-02T00:11:19.313Z,100881.78
2019-05-02T00:12:27.177Z,100878.69
2019-05-02T00:13:34.443Z,100879.16
2019-05-02T00:14:41.493Z,100883.09
2019-05-02T00:15:50.050Z,100879.94
2019-05-02T00:16:56.816Z,100878.16
2019-05-02T00:18:04.419Z,100881.64
2019-05-02T00:19:13.970Z,100873.87
2019-05-02T00:20:21.107Z,100874.62
2019-05-02T00:21:32.884Z,100877.57
2019-05-02T00:22:37.720Z,100877.09
2019-05-02T00:23:44.934Z,100871.10
2019-05-02T00:24:52.227Z,100874.83
2019-05-02T00:25:59.400Z,100872.95
2019-05-02T00:27:06.873Z,100868.89
2019-05-02T00:28:14.065Z,100872.23
2019-05-02T00:29:23.811Z,100873.81
2019-05-02T00:30:29.971Z,100876.64
2019-05-02T00:31:41.846Z,100874.14
2019-05-02T00:32:46.435Z,100869.41
2019-05-02T00:33:53.180Z,100868.40
2019-05-02T00:34:59.952Z,100867.11
2019-05-02T00:36:07.086Z,100866.72
2019-05-02T00:37:13.875Z,100871.05
2019-05-02T00:38:20.934Z,100864.64
2019-05-02T00:39:27.701Z,100869.20
2019-05-02T00:40:34.472Z,100866.31
2019-05-02T00:41:41.240Z,100867.63
2019-05-02T00:42:48.526Z,100863.51
2019-05-02T00:43:56.346Z,100866.98
2019-05-02T00:45:03.515Z,100864.91
2019-05-02T00:46:10.270Z,100857.11
2019-05-02T00:47:25.656Z,100861.69
2019-05-02T00:48:38.129Z,100859.04
2019-05-02T00:49:46.616Z,100862.77
2019-05-02T00:50:54.053Z,100855.20
2019-05-02T00:52:02.868Z,100855.44
2019-05-02T00:53:12.080Z,100854.55
2019-05-02T00:54:24.090Z,100852.78
2019-05-02T00:55:28.964Z,100850.58
2019-05-02T00:56:35.512Z,100850.28
2019-05-02T00:57:42.250Z,100849.45
2019-05-02T00:58:49.439Z,100851.53
2019-05-02T00:59:56.628Z,100852.28
2019-05-02T01:01:37.902Z,100848.91
2019-05-02T01:02:50.242Z,100846.92
2019-05-02T01:04:00.033Z,100852.90
2019-05-02T01:05:07.859Z,100845.34
2019-05-02T01:06:15.615Z,100843.13
2019-05-02T01:07:25.422Z,100843.13
2019-05-02T01:08:35.756Z,100838.52
2019-05-02T01:09:42.098Z,100844.05
2019-05-02T01:10:52.187Z,100839.82
2019-05-02T01:11:57.816Z,100834.67
2019-05-02T01:13:04.607Z,100836.45
2019-05-02T01:14:11.357Z,100839.05
2019-05-02T01:15:18.718Z,100836.91
2019-05-02T01:16:25.788Z,100837.27
2019-05-02T01:17:32.872Z,100832.98
2019-05-02T01:18:41.348Z,100833.69
2019-05-02T01:19:51.462Z,100828.51
2019-05-02T01:20:58.211Z,100827.73
2019-05-02T01:22:10.121Z,100828.56
2019-05-02T01:23:14.148Z,100826.06
2019-05-02T01:24:21.375Z,100828.51
2019-05-02T01:25:28.136Z,100822.43
2019-05-02T01:26:39.196Z,100827.52
2019-05-02T01:28:12.749Z,100825.89
2019-05-02T01:29:29.880Z,100825.14
2019-05-02T01:30:56.405Z,100829.84
2019-05-02T01:32:10.259Z,100825.47
2019-05-02T01:33:24.350Z,100820.70
2019-05-02T01:34:37.871Z,100819.87
2019-05-02T01:35:50.390Z,100821.09
2019-05-02T01:37:05.088Z,100817.72
2019-05-02T01:38:39.988Z,100815.19
2019-05-02T01:39:47.032Z,100813.79
2019-05-02T01:40:54.750Z,100811.38
2019-05-02T01:42:04.202Z,100817.13
2019-05-02T01:43:25.628Z,100810.16
2019-05-02T01:44:36.230Z,100813.23
2019-05-02T01:45:41.881Z,100804.17
2019-05-02T01:46:48.767Z,100805.94
2019-05-02T01:47:55.520Z,100802.52
2019-05-02T01:49:02.669Z,100802.89
2019-05-02T01:50:09.959Z,100804.12
2019-05-02T01:51:16.992Z,100802.27
2019-05-02T01:52:24.940Z,100795.53
2019-05-02T01:53:34.394Z,100800.56
2019-05-02T01:54:45.215Z,100799.65
2019-05-02T01:55:51.940Z,100801.28
2019-05-02T01:56:58.437Z,100796.97
2019-05-02T01:58:05.182Z,100796.44
2019-05-02T01:59:11.924Z,100798.58
2019-05-02T02:00:18.767Z,100798.19
2019-05-02T02:01:25.548Z,100800.52
2019-05-02T02:02:33.008Z,100800.75
2019-05-02T02:03:45.680Z,100802.87
2019-05-02T02:04:52.118Z,100804.41
2019-05-02T02:05:58.546Z,100797.50
2019-05-02T02:07:05.967Z,100797.41
2019-05-02T02:08:12.744Z,100794.86
2019-05-02T02:09:20.191Z,100785.36
2019-05-02T02:10:26.945Z,100784.11
2019-05-02T02:11:35.729Z,100791.28
2019-05-02T02:12:56.483Z,100792.06
2019-05-02T02:13:51.313Z,100787.73
2019-05-02T02:14:58.067Z,100781.34
2019-05-02T02:16:05.902Z,100786.88
2019-05-02T02:17:15.409Z,100781.34
2019-05-02T02:18:27.505Z,100783.78
2019-05-02T02:19:39.147Z,100787.68
2019-05-02T02:21:10.779Z,100780.48
2019-05-02T02:22:39.232Z,100782.98
2019-05-02T02:24:02.351Z,100776.30
2019-05-02T02:25:46.738Z,100778.45
2019-05-02T02:26:53.493Z,100770.08
2019-05-02T02:28:01.029Z,100778.21
2019-05-02T02:29:09.334Z,100769.22
2019-05-02T02:30:17.694Z,100769.28
2019-05-02T02:31:25.278Z,100770.62
2019-05-02T02:32:32.083Z,100774.02
2019-05-02T02:33:40.856Z,100765.86
2019-05-02T02:34:47.295Z,100761.98
2019-05-02T02:35:54.677Z,100765.25
2019-05-02T02:37:05.364Z,100767.55
2019-05-02T02:38:10.235Z,100767.67
2019-05-02T02:39:17.225Z,100759.60
2019-05-02T02:40:32.979Z,100763.17
2019-05-02T02:41:33.237Z,100759.75
2019-05-02T02:42:40.840Z,100758.89
2019-05-02T02:44:04.574Z,100756.18
2019-05-02T02:45:24.250Z,100760.44
2019-05-02T02:46:37.868Z,100752.70
2019-05-02T02:47:41.709Z,100758.23
2019-05-02T02:48:48.836Z,100755.97
2019-05-02T02:50:01.858Z,100749.92
2019-05-02T02:51:04.034Z,100758.05
2019-05-02T02:52:10.782Z,100758.47
2019-05-02T02:53:30.391Z,100754.15
2019-05-02T02:54:43.538Z,100753.67
2019-05-02T02:55:46.133Z,100751.87
2019-05-02T02:56:52.884Z,100756.27
2019-05-02T02:58:04.925Z,100755.87
2019-05-02T02:59:08.818Z,100754.92
2019-05-02T03:00:16.146Z,100752.71
2019-05-02T03:01:28.699Z,100755.66
2019-05-02T03:02:31.677Z,100756.49
2019-05-02T03:03:38.464Z,100752.68
2019-05-02T03:04:46.394Z,100758.70
2019-05-02T03:05:58.596Z,100751.72
2019-05-02T03:07:01.950Z,100753.52
2019-05-02T03:08:09.012Z,100748.78
2019-05-02T03:09:20.046Z,100754.80
2019-05-02T03:10:24.227Z,100749.34
2019-05-02T03:11:39.106Z,100748.04
2019-05-02T03:13:05.076Z,100743.72
2019-05-02T03:14:26.145Z,100744.64
2019-05-02T03:15:36.002Z,100742.98
2019-05-02T03:16:47.246Z,100741.66
2019-05-02T03:17:51.217Z,100745.45
2019-05-02T03:18:58.425Z,100737.05
2019-05-02T03:20:05.858Z,100734.55
2019-05-02T03:21:19.595Z,100732.83
2019-05-02T03:22:22.185Z,100738.39
2019-05-02T03:23:29.273Z,100732.92
2019-05-02T03:24:44.123Z,100735.55
2019-05-02T03:25:50.296Z,100733.91
2019-05-02T03:26:55.419Z,100728.50
2019-05-02T03:28:03.625Z,100730.06
2019-05-02T03:29:10.763Z,100732.28
2019-05-02T03:30:31.421Z,100735.22
2019-05-02T03:31:30.161Z,100735.19
2019-05-02T03:32:36.211Z,100734.27
2019-05-02T03:33:55.096Z,100732.66
2019-05-02T03:34:54.093Z,100731.34
2019-05-02T03:36:01.253Z,100733.46
2019-05-02T03:37:10.298Z,100724.42
2019-05-02T03:38:17.611Z,100723.31
2019-05-02T03:39:25.246Z,100722.42
2019-05-02T03:40:38.901Z,100720.79
2019-05-02T03:41:41.744Z,100723.80
2019-05-02T03:42:48.992Z,100719.87
2019-05-02T03:44:10.638Z,100725.91
2019-05-02T03:45:05.551Z,100719.57
2019-05-02T03:46:13.721Z,100718.47
2019-05-02T03:47:21.561Z,100717.94
2019-05-02T03:48:28.736Z,100721.74
2019-05-02T03:49:40.888Z,100718.32
2019-05-02T03:50:44.167Z,100717.37
2019-05-02T03:51:56.132Z,100711.83
2019-05-02T03:53:02.002Z,100711.98
2019-05-02T03:54:10.445Z,100708.59
2019-05-02T03:55:17.449Z,100715.05
2019-05-02T03:56:24.283Z,100714.18
2019-05-02T03:57:35.665Z,100714.57
2019-05-02T03:58:40.625Z,100716.62
2019-05-02T03:59:47.364Z,100709.30
2019-05-02T04:01:00.981Z,100704.09
2019-05-02T04:02:02.698Z,100702.96
2019-05-02T04:03:10.292Z,100704.48
2019-05-02T04:04:20.538Z,100705.76
2019-05-02T04:05:27.181Z,100700.49
2019-05-02T04:06:34.665Z,100699.09
2019-05-02T04:07:42.553Z,100702.91
2019-05-02T04:08:59.291Z,100704.57
2019-05-02T04:10:00.033Z,100701.05
2019-05-02T04:11:37.891Z,100701.59
2019-05-02T04:12:36.510Z,100699.06
2019-05-02T04:13:44.839Z,100700.05
2019-05-02T04:14:55.415Z,100698.86
2019-05-02T04:16:00.856Z,100697.58
2019-05-02T04:17:07.662Z,100693.38
2019-05-02T04:18:17.567Z,100698.32
2019-05-02T04:19:28.588Z,100696.62
2019-05-02T04:20:32.017Z,100691.30
2019-05-02T04:21:38.871Z,100696.18
2019-05-02T04:22:48.967Z,100693.11
2019-05-02T04:24:07.198Z,100694.90
2019-05-02T04:25:06.332Z,100692.72
2019-05-02T04:26:14.390Z,100686.45
2019-05-02T04:27:27.278Z,100694.30
2019-05-02T04:28:31.589Z,100695.61
2019-05-02T04:29:39.600Z,100695.78
2019-05-02T04:30:51.165Z,100703.70
2019-05-02T04:31:55.486Z,100693.80
2019-05-02T04:33:03.053Z,100701.36
2019-05-02T04:34:15.528Z,100695.67
2019-05-02T04:35:19.493Z,100701.66
2019-05-02T04:36:26.665Z,100697.72
2019-05-02T04:37:34.485Z,100692.98
2019-05-02T04:38:47.645Z,100693.70
2019-05-02T04:39:53.808Z,100699.23
2019-05-02T04:40:59.863Z,100697.72
2019-05-02T04:42:12.920Z,100686.89
2019-05-02T04:43:18.231Z,100695.38
2019-05-02T04:44:29.718Z,100691.51
2019-05-02T04:45:47.287Z,100695.41
2019-05-02T04:46:41.524Z,100697.84
2019-05-02T04:47:54.770Z,100692.37
2019-05-02T04:48:58.908Z,100696.00
2019-05-02T04:50:07.626Z,100699.77
2019-05-02T04:51:17.465Z,100696.68
2019-05-02T04:52:22.902Z,100693.25
2019-05-02T04:53:36.651Z,100693.70
2019-05-02T04:54:39.043Z,100693.22
2019-05-02T04:55:52.439Z,100691.84
2019-05-02T04:56:55.442Z,100692.62
2019-05-02T04:58:02.650Z,100689.55
2019-05-02T04:59:17.642Z,100688.78
2019-05-02T05:00:28.727Z,100688.78
2019-05-02T05:01:43.351Z,100683.78
2019-05-02T05:02:44.354Z,100677.77
2019-05-02T05:03:58.158Z,100684.02
2019-05-02T05:04:59.972Z,100683.40
2019-05-02T05:06:11.703Z,100685.19
2019-05-02T05:07:17.627Z,100686.25
2019-05-02T05:08:26.641Z,100683.50
2019-05-02T05:09:32.893Z,100680.48
2019-05-02T05:10:41.498Z,100688.11
2019-05-02T05:11:48.786Z,100685.55
2019-05-02T05:12:57.162Z,100683.14
2019-05-02T05:14:04.373Z,100684.46
2019-05-02T05:15:15.193Z,100680.20
2019-05-02T05:16:19.900Z,100683.91
2019-05-02T05:17:32.486Z,100688.14
2019-05-02T05:18:35.141Z,100693.80
2019-05-02T05:19:42.590Z,100689.58
2019-05-02T05:20:52.972Z,100691.56
2019-05-02T05:22:04.481Z,100697.04
2019-05-02T05:23:08.262Z,100694.48
2019-05-02T05:24:38.487Z,100695.02
2019-05-02T05:26:03.481Z,100694.16
2019-05-02T05:27:08.220Z,100690.67
2019-05-02T05:28:15.605Z,100688.48
2019-05-02T05:29:23.378Z,100689.67
2019-05-02T05:30:30.411Z,100683.17
2019-05-02T05:31:38.205Z,100682.89
2019-05-02T05:32:45.179Z,100687.91
2019-05-02T05:33:51.915Z,100684.91
2019-05-02T05:35:03.263Z,100681.73
2019-05-02T05:36:08.159Z,100678.98
2019-05-02T05:37:17.139Z,100680.23
2019-05-02T05:38:28.571Z,100679.66
2019-05-02T05:39:32.205Z,100676.42
2019-05-02T05:40:39.278Z,100676.00
2019-05-02T05:41:50.528Z,100674.59
2019-05-02T05:42:54.667Z,100677.58
2019-05-02T05:44:01.772Z,100673.28
2019-05-02T05:45:13.817Z,100674.98
2019-05-02T05:46:18.762Z,100678.88
2019-05-02T05:47:27.409Z,100674.98
2019-05-02T05:48:39.120Z,100674.81
2019-05-02T05:49:42.847Z,100675.20
2019-05-02T05:50:49.615Z,100672.73
2019-05-02T05:52:00.639Z,100677.17
2019-05-02T05:53:05.454Z,100673.81
2019-05-02T05:54:12.191Z,100669.97
2019-05-02T05:55:24.065Z,100673.30
2019-05-02T05:56:28.110Z,100663.78
2019-05-02T05:57:35.302Z,100661.14
2019-05-02T05:58:48.107Z,100666.13
2019-05-02T05:59:50.965Z,100659.70
2019-05-02T06:00:58.510Z,100659.34
2019-05-02T06:02:10.181Z,100653.73
2019-05-02T06:03:14.310Z,100658.72
2019-05-02T06:04:24.021Z,100653.78
2019-05-02T06:05:33.259Z,100657.97
2019-05-02T06:06:39.890Z,100661.98
2019-05-02T06:07:47.428Z,100660.62
2019-05-02T06:08:55.391Z,100659.64
2019-05-02T06:10:07.859Z,100659.98
2019-05-02T06:11:14.809Z,100655.64
2019-05-02T06:12:19.813Z,100659.03
2019-05-02T06:13:27.035Z,100657.00
2019-05-02T06:14:34.720Z,100657.83
2019-05-02T06:15:42.061Z,100658.20
2019-05-02T06:16:51.698Z,100654.92
2019-05-02T06:17:59.935Z,100656.55
2019-05-02T06:19:06.785Z,100658.20
2019-05-02T06:20:14.082Z,100653.83
2019-05-02T06:21:20.856Z,100656.28
2019-05-02T06:22:27.792Z,100656.81
2019-05-02T06:23:36.316Z,100654.13
2019-05-02T06:24:46.100Z,100660.77
2019-05-02T06:25:51.606Z,100660.88
2019-05-02T06:26:58.381Z,100662.53
2019-05-02T06:28:06.865Z,100655.97
2019-05-02T06:29:18.793Z,100656.72
2019-05-02T06:30:27.138Z,100655.62
2019-05-02T06:31:32.707Z,100656.08
2019-05-02T06:32:39.929Z,100648.20
2019-05-02T06:33:47.030Z,100649.70
2019-05-02T06:34:53.791Z,100651.03
2019-05-02T06:36:01.300Z,100650.39
2019-05-02T06:37:13.617Z,100651.06
2019-05-02T06:38:21.533Z,100651.21
2019-05-02T06:39:27.193Z,100650.94
2019-05-02T06:40:39.275Z,100648.33
2019-05-02T06:41:44.271Z,100638.90
2019-05-02T06:42:51.423Z,100646.64
2019-05-02T06:43:58.216Z,100640.80
2019-05-02T06:45:06.272Z,100644.74
2019-05-02T06:46:16.464Z,100640.97
2019-05-02T06:47:22.279Z,100643.36
2019-05-02T06:48:29.052Z,100643.66
2019-05-02T06:49:35.822Z,100641.42
2019-05-02T06:50:43.107Z,100638.50
2019-05-02T06:51:51.031Z,100633.16
2019-05-02T06:52:58.626Z,100633.45
2019-05-02T06:54:05.493Z,100634.48
2019-05-02T06:55:13.077Z,100633.41
2019-05-02T06:56:19.898Z,100634.47
2019-05-02T06:57:26.696Z,100625.42
2019-05-02T06:58:37.165Z,100629.94
2019-05-02T06:59:41.972Z,100631.50
2019-05-02T07:00:57.587Z,100634.84
2019-05-02T07:01:58.756Z,100631.41
2019-05-02T07:03:10.316Z,100629.27
2019-05-02T07:04:17.373Z,100624.79
2019-05-02T07:05:27.189Z,100626.26
2019-05-02T07:06:42.446Z,100622.41
2019-05-02T07:07:40.653Z,100633.47
2019-05-02T07:08:47.716Z,100628.06
2019-05-02T07:09:54.678Z,100629.94
2019-05-02T07:11:03.195Z,100631.59
2019-05-02T07:12:14.671Z,100623.80
2019-05-02T07:13:19.820Z,100626.81
2019-05-02T07:14:26.572Z,100625.91
2019-05-02T07:15:59.428Z,100629.08
2019-05-02T07:17:26.502Z,100629.12
2019-05-02T07:18:36.760Z,100628.09
2019-05-02T07:19:46.636Z,100636.84
2019-05-02T07:20:53.901Z,100630.47
2019-05-02T07:22:04.229Z,100628.17
2019-05-02T07:23:10.467Z,100627.77
2019-05-02T07:24:18.342Z,100632.08
2019-05-02T07:25:27.232Z,100636.69
2019-05-02T07:26:34.412Z,100635.53
2019-05-02T07:27:41.613Z,100628.47
2019-05-02T07:28:48.430Z,100629.43
2019-05-02T07:29:57.633Z,100628.92
2019-05-02T07:31:06.660Z,100634.23
2019-05-02T07:32:13.058Z,100625.45
2019-05-02T07:33:19.813Z,100626.64
2019-05-02T07:34:26.604Z,100626.08
2019-05-02T07:35:33.908Z,100633.23
2019-05-02T07:36:40.665Z,100627.91
2019-05-02T07:37:48.719Z,100627.34
2019-05-02T07:38:57.535Z,100630.64
2019-05-02T07:40:05.673Z,100625.24
2019-05-02T07:41:12.539Z,100628.18
2019-05-02T07:42:19.683Z,100631.31
2019-05-02T07:43:27.228Z,100628.74
2019-05-02T07:44:34.504Z,100630.66
2019-05-02T07:45:45.315Z,100630.09
2019-05-02T07:46:52.067Z,100628.27
2019-05-02T07:48:01.469Z,100630.59
2019-05-02T07:49:07.548Z,100626.89
2019-05-02T07:50:15.023Z,100633.02
2019-05-02T07:51:22.653Z,100630.39
2019-05-02T07:52:33.754Z,100630.66
2019-05-02T07:53:38.532Z,100628.44
2019-05-02T07:54:45.350Z,100629.06
2019-05-02T07:55:52.122Z,100625.75
2019-05-02T07:57:02.024Z,100628.95
2019-05-02T07:58:08.298Z,100625.56
2019-05-02T07:59:18.613Z,100625.11
2019-05-02T08:00:24.422Z,100621.64
2019-05-02T08:01:31.615Z,100619.70
2019-05-02T08:02:38.446Z,100623.08
2019-05-02T08:03:45.232Z,100620.50
2019-05-02T08:04:52.090Z,100618.19
2019-05-02T08:05:59.906Z,100620.39
2019-05-02T08:07:07.457Z,100618.05
2019-05-02T08:08:14.255Z,100617.22
2019-05-02T08:09:21.565Z,100613.55
2019-05-02T08:10:28.655Z,100615.66
2019-05-02T08:11:37.061Z,100612.12
2019-05-02T08:12:44.390Z,100609.23
2019-05-02T08:13:55.757Z,100611.09
2019-05-02T08:15:00.791Z,100610.66
2019-05-02T08:16:08.568Z,100604.35
2019-05-02T08:17:17.052Z,100611.91
2019-05-02T08:18:25.263Z,100613.77
2019-05-02T08:19:37.501Z,100611.70
2019-05-02T08:20:41.264Z,100614.88
2019-05-02T08:21:48.380Z,100610.60
2019-05-02T08:22:55.558Z,100616.94
2019-05-02T08:24:03.689Z,100620.06
2019-05-02T08:25:11.700Z,100613.89
2019-05-02T08:26:21.784Z,100607.89
2019-05-02T08:27:46.253Z,100608.38
2019-05-02T08:28:58.235Z,100612.17
2019-05-02T08:30:06.025Z,100611.45
2019-05-02T08:31:13.477Z,100605.71
2019-05-02T08:32:21.427Z,100610.05
2019-05-02T08:33:29.315Z,100606.82
2019-05-02T08:34:37.220Z,100606.44
2019-05-02T08:35:44.003Z,100603.80
2019-05-02T08:36:51.631Z,100607.98
2019-05-02T08:37:58.522Z,100604.58
2019-05-02T08:39:07.293Z,100605.59
2019-05-02T08:40:15.123Z,100609.34
2019-05-02T08:41:22.258Z,100606.87
2019-05-02T08:42:32.545Z,100605.28
2019-05-02T08:43:40.099Z,100609.58
2019-05-02T08:44:51.192Z,100606.42
2019-05-02T08:45:55.016Z,100600.63
2019-05-02T08:47:01.840Z,100605.32
2019-05-02T08:48:08.600Z,100604.92
2019-05-02T08:49:18.774Z,100612.89
2019-05-02T08:50:27.144Z,100610.23
2019-05-02T08:51:32.770Z,100608.52
2019-05-02T08:52:42.195Z,100604.59
2019-05-02T08:53:52.208Z,100599.17
2019-05-02T08:54:58.102Z,100609.02
2019-05-02T08:56:04.876Z,100609.27
2019-05-02T08:57:11.993Z,100608.22
2019-05-02T08:58:18.958Z,100609.18
2019-05-02T08:59:26.203Z,100612.27
2019-05-02T09:00:37.624Z,100606.73
2019-05-02T09:01:44.782Z,100603.36
2019-05-02T09:02:50.589Z,100599.81
2019-05-02T09:03:57.449Z,100603.45
2019-05-02T09:05:06.053Z,100596.86
2019-05-02T09:06:17.223Z,100597.52
2019-05-02T09:07:22.272Z,100599.86
2019-05-02T09:08:29.157Z,100597.30
2019-05-02T09:09:35.974Z,100596.22
2019-05-02T09:10:43.515Z,100593.47
2019-05-02T09:12:03.326Z,100597.50
2019-05-02T09:12:59.408Z,100594.98
2019-05-02T09:14:06.616Z,100590.91
2019-05-02T09:15:14.443Z,100594.14
2019-05-02T09:16:28.384Z,100590.96
2019-05-02T09:17:37.733Z,100596.48
2019-05-02T09:18:46.543Z,100589.77
2019-05-02T09:19:59.527Z,100589.98
2019-05-02T09:20:58.454Z,100592.17
2019-05-02T09:22:07.615Z,100594.17
2019-05-02T09:23:14.166Z,100597.42
2019-05-02T09:24:23.896Z,100599.27
2019-05-02T09:25:32.336Z,100598.71
2019-05-02T09:26:39.461Z,100593.91
2019-05-02T09:27:46.566Z,100597.20
2019-05-02T09:28:56.390Z,100589.73
2019-05-02T09:30:02.863Z,100594.02
2019-05-02T09:31:09.754Z,100594.23
2019-05-02T09:32:17.221Z,100588.84
2019-05-02T09:33:25.787Z,100590.74
2019-05-02T09:34:32.668Z,100584.71
2019-05-02T09:35:42.048Z,100591.85
2019-05-02T09:36:48.725Z,100594.08
2019-05-02T09:37:56.026Z,100588.23
2019-05-02T09:39:04.708Z,100592.47
2019-05-02T09:40:16.558Z,100592.25
2019-05-02T09:41:22.113Z,100595.05
2019-05-02T09:42:29.224Z,100590.83
2019-05-02T09:43:38.959Z,100593.63
2019-05-02T09:44:47.957Z,100591.57
2019-05-02T09:45:54.909Z,100588.92
2019-05-02T09:47:02.399Z,100590.88
2019-05-02T09:48:09.684Z,100579.57
2019-05-02T09:49:17.277Z,100586.20
2019-05-02T09:50:29.371Z,100587.32
2019-05-02T09:51:33.062Z,100588.28
2019-05-02T09:52:43.617Z,100580.78
2019-05-02T09:53:48.866Z,100581.90
2019-05-02T09:54:55.811Z,100576.13
2019-05-02T09:56:02.760Z,100571.56
2019-05-02T09:57:09.522Z,100576.15
2019-05-02T09:58:21.253Z,100574.08
2019-05-02T09:59:33.097Z,100569.88
2019-05-02T10:00:46.578Z,100564.86
2019-05-02T10:01:53.440Z,100562.00
2019-05-02T10:03:02.671Z,100554.30
2019-05-02T10:04:12.050Z,100553.69
2019-05-02T10:05:19.278Z,100551.42
2019-05-02T10:06:26.795Z,100552.06
2019-05-02T10:07:33.756Z,100551.78
2019-05-02T10:08:43.549Z,100554.14
2019-05-02T10:09:51.782Z,100545.73
2019-05-02T10:10:58.558Z,100545.63
2019-05-02T10:12:06.231Z,100540.98
2019-05-02T10:13:13.017Z,100546.02
2019-05-02T10:14:20.090Z,100543.78
2019-05-02T10:15:27.296Z,100539.45
2019-05-02T10:16:34.232Z,100542.24
2019-05-02T10:17:44.777Z,100538.14
2019-05-02T10:18:52.211Z,100536.81
2019-05-02T10:19:58.810Z,100537.39
2019-05-02T10:21:07.824Z,100535.22
2019-05-02T10:22:14.787Z,100530.96
2019-05-02T10:23:23.456Z,100533.80
2019-05-02T10:24:32.267Z,100532.53
2019-05-02T10:25:44.637Z,100532.05
2019-05-02T10:26:48.331Z,100531.16
2019-05-02T10:27:55.126Z,100528.06
2019-05-02T10:29:03.132Z,100530.91
2019-05-02T10:30:15.702Z,100526.95
2019-05-02T10:31:21.827Z,100526.03
2019-05-02T10:32:28.801Z,100526.61
2019-05-02T10:33:37.616Z,100520.07
2019-05-02T10:34:47.615Z,100517.20
2019-05-02T10:35:53.160Z,100517.60
2019-05-02T10:37:02.491Z,100515.33
2019-05-02T10:38:13.773Z,100518.27
2019-05-02T10:39:18.173Z,100516.06
2019-05-02T10:40:25.032Z,100511.38
2019-05-02T10:41:39.208Z,100509.22
2019-05-02T10:42:41.928Z,100506.91
2019-05-02T10:43:53.913Z,100502.92
2019-05-02T10:44:58.091Z,100504.68
2019-05-02T10:46:27.822Z,100502.79
2019-05-02T10:47:36.368Z,100501.50
2019-05-02T10:48:49.771Z,100498.19
2019-05-02T10:50:02.275Z,100498.59
2019-05-02T10:51:26.555Z,100495.76
2019-05-02T10:52:34.232Z,100495.25
2019-05-02T10:53:42.431Z,100496.91
2019-05-02T10:54:49.369Z,100494.60
2019-05-02T10:55:56.300Z,100498.05
2019-05-02T10:57:03.189Z,100488.81
2019-05-02T10:58:12.313Z,100492.20
2019-05-02T10:59:19.464Z,100499.41
2019-05-02T11:00:35.220Z,100497.51
2019-05-02T11:02:16.584Z,100494.78
2019-05-02T11:03:37.956Z,100495.61
2019-05-02T11:04:47.886Z,100500.38
2019-05-02T11:06:05.698Z,100495.29
2019-05-02T11:07:07.014Z,100502.03
2019-05-02T11:08:14.213Z,100496.80
2019-05-02T11:09:23.804Z,100491.88
2019-05-02T11:10:32.182Z,100490.12
2019-05-02T11:11:38.939Z,100495.00
2019-05-02T11:12:52.942Z,100488.89
2019-05-02T11:14:25.766Z,100493.92
2019-05-02T11:15:54.806Z,100490.33
2019-05-02T11:17:17.698Z,100493.09
2019-05-02T11:18:39.441Z,100490.50
2019-05-02T11:19:43.499Z,100481.37
2019-05-02T11:20:52.374Z,100495.14
2019-05-02T11:21:59.746Z,100486.98
2019-05-02T11:23:06.916Z,100491.73
2019-05-02T11:24:14.442Z,100487.77
2019-05-02T11:25:22.562Z,100489.27
2019-05-02T11:26:29.913Z,100486.94
2019-05-02T11:27:37.008Z,100489.25
2019-05-02T11:28:43.805Z,100494.36
2019-05-02T11:29:52.533Z,100491.44
2019-05-02T11:31:02.524Z,100484.63
2019-05-02T11:32:08.040Z,100487.45
2019-05-02T11:33:15.231Z,100493.59
2019-05-02T11:34:22.254Z,100492.49
2019-05-02T11:35:29.323Z,100491.59
2019-05-02T11:36:36.271Z,100491.36
2019-05-02T11:37:43.101Z,100492.97
2019-05-02T11:38:59.762Z,100493.01
2019-05-02T11:40:00.941Z,100495.26
2019-05-02T11:41:07.828Z,100492.08
2019-05-02T11:42:17.598Z,100500.75
2019-05-02T11:43:23.745Z,100498.94
2019-05-02T11:44:32.629Z,100490.63
2019-05-02T11:45:39.677Z,100497.70
2019-05-02T11:46:47.104Z,100495.18
2019-05-02T11:47:56.034Z,100496.35
2019-05-02T11:49:02.660Z,100497.62
2019-05-02T11:50:11.821Z,100507.92
2019-05-02T11:51:19.131Z,100507.90
2019-05-02T11:52:27.534Z,100505.52
2019-05-02T11:53:34.728Z,100510.62
2019-05-02T11:54:46.797Z,100508.09
2019-05-02T11:55:50.649Z,100511.19
2019-05-02T11:56:57.624Z,100507.47
2019-05-02T11:58:08.280Z,100503.27
2019-05-02T11:59:14.957Z,100506.72
2019-05-02T12:00:21.946Z,100502.20
2019-05-02T12:01:38.163Z,100507.86
2019-05-02T12:02:58.108Z,100502.63
2019-05-02T12:04:07.648Z,100501.48
2019-05-02T12:05:15.866Z,100499.22
2019-05-02T12:06:22.981Z,100505.80
2019-05-02T12:07:29.734Z,100503.78
2019-05-02T12:08:39.456Z,100504.86
2019-05-02T12:09:52.112Z,100496.83
2019-05-02T12:10:53.513Z,100497.69
2019-05-02T12:12:02.549Z,100497.22
2019-05-02T12:13:11.968Z,100496.34
2019-05-02T12:14:17.856Z,100501.23
2019-05-02T12:15:26.946Z,100499.36
2019-05-02T12:16:34.321Z,100498.80
2019-05-02T12:17:41.992Z,100490.86
2019-05-02T12:18:49.982Z,100491.44
2019-05-02T12:19:56.867Z,100497.05
2019-05-02T12:21:04.033Z,100499.36
2019-05-02T12:22:12.946Z,100497.10
2019-05-02T12:23:19.690Z,100496.87
2019-05-02T12:24:26.585Z,100488.56
2019-05-02T12:25:33.361Z,100493.12
2019-05-02T12:26:41.944Z,100495.94
2019-05-02T12:27:48.933Z,100499.88
2019-05-02T12:28:56.446Z,100494.52
2019-05-02T12:30:03.911Z,100493.21
2019-05-02T12:31:28.482Z,100492.58
2019-05-02T12:32:35.787Z,100496.13
2019-05-02T12:33:43.297Z,100497.55
2019-05-02T12:34:50.247Z,100495.62
2019-05-02T12:35:57.195Z,100490.47
2019-05-02T12:37:04.335Z,100496.05
2019-05-02T12:38:12.211Z,100494.39
2019-05-02T12:39:19.702Z,100492.89
2019-05-02T12:40:26.479Z,100493.59
2019-05-02T12:41:33.660Z,100492.25
2019-05-02T12:43:02.466Z,100494.77
2019-05-02T12:44:11.714Z,100492.83
2019-05-02T12:45:18.969Z,100493.47
2019-05-02T12:46:28.385Z,100491.72
2019-05-02T12:47:34.344Z,100495.69
2019-05-02T12:48:42.238Z,100492.89
2019-05-02T12:49:49.264Z,100489.42
2019-05-02T12:50:56.161Z,100490.53
2019-05-02T12:52:03.692Z,100484.20
2019-05-02T12:53:12.439Z,100493.22
2019-05-02T12:54:19.110Z,100498.45
2019-05-02T12:55:26.090Z,100489.16
2019-05-02T12:56:33.236Z,100487.35
2019-05-02T12:57:40.444Z,100485.91
2019-05-02T12:58:47.901Z,100486.28
2019-05-02T12:59:54.716Z,100479.70
2019-05-02T13:01:02.859Z,100483.70
2019-05-02T13:02:15.381Z,100481.78
2019-05-02T13:03:56.451Z,100475.59
2019-05-02T13:05:03.539Z,100483.32
2019-05-02T13:06:12.319Z,100481.06
2019-05-02T13:07:19.389Z,100482.87